Time;durP1;ratioP1;P1;durP2;ratioP2;P2;SDS_P1;SDS_P2;PMS_P1;PMS_P2;Temp;Humidity;BMP_temperature;BMP_pressure;BME280_temperature;BME280_humidity;BME280_pressure;Samples;Min_cycle;Max_cycle;Signal;HPM_P1;HPM_P2
2024/03/24 00:01:26;;;;;;;1.70;1.20;;;10.60;59.50;;;;;;5008083;28;20399;-63
2024/03/24 00:03:52;;;;;;;1.27;0.97;;;10.60;59.30;;;;;;5008238;28;20421;-61
2024/03/24 00:06:17;;;;;;;1.03;0.80;;;10.60;59.00;;;;;;5009165;28;20979;-64
2024/03/24 00:08:43;;;;;;;1.10;1.00;;;10.50;58.70;;;;;;5008233;28;20197;-60
2024/03/24 00:11:09;;;;;;;1.10;1.00;;;10.50;58.80;;;;;;5007055;28;20226;-58
2024/03/24 00:13:34;;;;;;;1.40;0.97;;;10.60;58.60;;;;;;5004752;28;20272;-61
2024/03/24 00:16:02;;;;;;;1.90;1.10;;;10.60;58.80;;;;;;4999572;28;20186;-63
2024/03/24 00:18:28;;;;;;;1.50;1.00;;;10.40;58.50;;;;;;5001245;28;20658;-66
2024/03/24 00:20:53;;;;;;;2.60;0.83;;;10.20;59.60;;;;;;5001910;28;20469;-62
2024/03/24 00:23:19;;;;;;;1.93;1.23;;;10.20;59.60;;;;;;5001678;28;20423;-60
2024/03/24 00:25:44;;;;;;;1.63;0.83;;;10.30;59.40;;;;;;5000456;28;20273;-67
2024/03/24 00:28:10;;;;;;;0.73;0.70;;;10.20;59.30;;;;;;5002444;28;20206;-66
2024/03/24 00:30:36;;;;;;;0.70;0.70;;;10.20;59.30;;;;;;5001040;28;20664;-62
2024/03/24 00:33:01;;;;;;;1.00;0.80;;;10.10;59.70;;;;;;5003721;28;20248;-64
2024/03/24 00:35:27;;;;;;;1.20;1.07;;;10.00;60.10;;;;;;5003835;28;20232;-58
2024/03/24 00:37:53;;;;;;;0.97;0.70;;;9.90;61.10;;;;;;5000644;28;20216;-63
2024/03/24 00:40:18;;;;;;;0.97;0.97;;;9.80;61.90;;;;;;5001902;28;20194;-62
2024/03/24 00:42:44;;;;;;;1.63;1.00;;;9.90;62.00;;;;;;5002270;28;20221;-63
2024/03/24 00:45:09;;;;;;;3.53;0.93;;;10.10;60.20;;;;;;4999704;28;20178;-62
2024/03/24 00:47:35;;;;;;;0.90;0.70;;;10.20;60.20;;;;;;5001168;28;20693;-61
2024/03/24 00:50:02;;;;;;;2.10;0.87;;;10.20;59.70;;;;;;5004294;28;20213;-60
2024/03/24 00:52:28;;;;;;;1.00;0.70;;;10.20;59.70;;;;;;5010663;28;20435;-65
2024/03/24 00:54:54;;;;;;;1.30;0.73;;;10.30;59.50;;;;;;5009174;28;20428;-62
2024/03/24 00:57:19;;;;;;;1.63;0.83;;;10.20;59.30;;;;;;5001457;28;20300;-62
2024/03/24 00:59:45;;;;;;;1.13;1.03;;;10.20;59.50;;;;;;5001801;28;20186;-64
2024/03/24 01:02:10;;;;;;;0.70;0.70;;;10.20;59.30;;;;;;4997168;28;20229;-62
2024/03/24 01:04:36;;;;;;;1.63;0.80;;;10.10;59.30;;;;;;5002631;28;20188;-65
2024/03/24 01:07:02;;;;;;;0.90;0.77;;;10.00;60.00;;;;;;5007192;28;20213;-63
2024/03/24 01:09:28;;;;;;;2.63;0.80;;;9.80;61.50;;;;;;5005161;28;20194;-62
2024/03/24 01:11:54;;;;;;;1.00;0.90;;;9.40;62.10;;;;;;5002221;28;20480;-60
2024/03/24 01:14:20;;;;;;;0.70;0.67;;;9.10;63.80;;;;;;5013405;28;20511;-61
2024/03/24 01:16:45;;;;;;;1.00;0.80;;;9.00;64.50;;;;;;5005799;28;20374;-61
2024/03/24 01:19:11;;;;;;;2.77;0.90;;;9.10;65.00;;;;;;5003774;28;20190;-63
2024/03/24 01:21:36;;;;;;;1.13;0.77;;;9.00;64.50;;;;;;5009291;28;20661;-65
2024/03/24 01:24:03;;;;;;;3.43;0.87;;;9.30;64.40;;;;;;5012807;28;20272;-57
2024/03/24 01:26:29;;;;;;;2.67;0.93;;;9.00;64.10;;;;;;5006065;28;20208;-64
2024/03/24 01:28:54;;;;;;;1.07;0.80;;;8.90;64.80;;;;;;5011397;28;20531;-60
2024/03/24 01:31:20;;;;;;;1.20;0.70;;;9.10;65.20;;;;;;5012205;28;20221;-60
2024/03/24 01:33:45;;;;;;;0.80;0.80;;;9.10;64.50;;;;;;5004500;28;20186;-62
2024/03/24 01:36:11;;;;;;;0.80;0.63;;;9.20;64.50;;;;;;4989138;28;20201;-61
2024/03/24 01:38:37;;;;;;;3.03;0.90;;;9.30;64.40;;;;;;5009575;28;20193;-62
2024/03/24 01:41:02;;;;;;;1.10;0.60;;;9.30;64.50;;;;;;5012357;28;20186;-57
2024/03/24 01:43:28;;;;;;;1.60;0.90;;;9.20;64.50;;;;;;5016333;28;20217;-68
2024/03/24 01:45:53;;;;;;;1.97;0.73;;;9.20;65.10;;;;;;5008350;28;20241;-60
2024/03/24 01:48:19;;;;;;;2.70;0.90;;;9.00;64.90;;;;;;5011364;28;20688;-62
2024/03/24 01:50:45;;;;;;;4.80;0.73;;;9.20;66.30;;;;;;5013741;28;20228;-61
2024/03/24 01:53:12;;;;;;;1.50;0.90;;;8.90;65.40;;;;;;5020657;28;20424;-60
2024/03/24 01:55:37;;;;;;;1.77;0.50;;;8.70;67.00;;;;;;5010337;28;20409;-59
2024/03/24 01:58:04;;;;;;;0.80;0.70;;;8.70;68.30;;;;;;5008688;28;20522;-62
2024/03/24 02:00:31;;;;;;;1.43;0.80;;;8.70;68.80;;;;;;5009042;28;20205;-62
2024/03/24 02:02:56;;;;;;;0.80;0.77;;;9.00;69.10;;;;;;5011843;28;20433;-60
2024/03/24 02:05:26;;;;;;;1.70;0.70;;;8.90;68.40;;;;;;5015922;28;20432;-59
2024/03/24 02:07:52;;;;;;;0.80;0.80;;;9.10;68.40;;;;;;5007157;28;20807;-61
2024/03/24 02:10:18;;;;;;;1.13;0.80;;;8.90;68.80;;;;;;5009071;28;20840;-61
2024/03/24 02:12:44;;;;;;;1.97;0.80;;;8.50;68.90;;;;;;5010803;28;20531;-62
2024/03/24 02:15:12;;;;;;;0.83;0.73;;;8.40;70.90;;;;;;5003070;28;20544;-62
2024/03/24 02:17:38;;;;;;;0.70;0.70;;;8.40;70.90;;;;;;5013602;28;20215;-61
2024/03/24 02:20:04;;;;;;;1.83;0.80;;;8.60;70.70;;;;;;5011338;28;20444;-63
2024/03/24 02:22:36;;;;;;;1.23;0.83;;;8.70;70.10;;;;;;5013592;28;20182;-64
2024/03/24 02:25:02;;;;;;;3.07;0.70;;;8.80;69.30;;;;;;5001575;28;20433;-61
2024/03/24 02:27:28;;;;;;;0.80;0.80;;;9.00;68.10;;;;;;5012634;28;20549;-61
2024/03/24 02:29:53;;;;;;;0.70;0.67;;;9.10;67.80;;;;;;5000906;28;20516;-61
2024/03/24 02:32:19;;;;;;;0.60;0.50;;;9.30;66.90;;;;;;5002463;28;20202;-56
2024/03/24 02:34:45;;;;;;;1.43;0.90;;;9.50;66.20;;;;;;5003084;28;20193;-62
2024/03/24 02:37:10;;;;;;;1.60;0.70;;;9.60;65.70;;;;;;5012433;28;20630;-60
2024/03/24 02:39:36;;;;;;;2.30;0.83;;;9.70;65.50;;;;;;5005464;28;20715;-63
2024/03/24 02:42:01;;;;;;;1.23;0.70;;;9.70;65.20;;;;;;5006982;28;20178;-64
2024/03/24 02:44:27;;;;;;;0.73;0.70;;;9.90;64.70;;;;;;5004786;28;20225;-58
2024/03/24 02:46:52;;;;;;;1.70;0.90;;;10.00;63.20;;;;;;5000342;28;20222;-59
2024/03/24 02:49:18;;;;;;;1.40;0.90;;;10.10;62.90;;;;;;5011756;28;20185;-60
2024/03/24 02:51:44;;;;;;;2.60;1.00;;;10.20;62.40;;;;;;5012287;28;20217;-61
2024/03/24 02:54:09;;;;;;;0.70;0.70;;;10.20;62.10;;;;;;5001263;28;20221;-59
2024/03/24 02:56:35;;;;;;;0.80;0.70;;;10.30;61.80;;;;;;5015252;28;20662;-62
2024/03/24 02:59:00;;;;;;;0.83;0.80;;;10.40;61.40;;;;;;5003176;28;20186;-58
2024/03/24 03:01:27;;;;;;;0.73;0.70;;;10.40;61.40;;;;;;5002150;28;20194;-61
2024/03/24 03:03:52;;;;;;;0.77;0.77;;;10.40;61.00;;;;;;5000841;28;20711;-59
2024/03/24 03:06:18;;;;;;;1.80;0.90;;;10.40;61.10;;;;;;5010942;28;20457;-60
2024/03/24 03:08:44;;;;;;;0.80;0.70;;;10.50;61.10;;;;;;5004279;28;20217;-62
2024/03/24 03:11:11;;;;;;;0.60;0.60;;;10.50;60.80;;;;;;5003287;28;20579;-60
2024/03/24 03:13:36;;;;;;;1.20;1.10;;;10.60;60.60;;;;;;5000809;28;20441;-64
2024/03/24 03:16:02;;;;;;;2.30;0.60;;;10.60;60.40;;;;;;5002841;28;20182;-64
2024/03/24 03:18:28;;;;;;;0.63;0.63;;;10.60;60.30;;;;;;5002594;28;20629;-60
2024/03/24 03:20:53;;;;;;;1.93;0.90;;;10.50;60.40;;;;;;5001337;28;20196;-65
2024/03/24 03:23:19;;;;;;;1.03;0.77;;;10.60;60.40;;;;;;5002481;28;20202;-63
2024/03/24 03:25:44;;;;;;;1.10;1.00;;;10.60;60.30;;;;;;5002456;28;21024;-63
2024/03/24 03:28:10;;;;;;;1.30;0.77;;;10.60;60.30;;;;;;5007297;28;20674;-62
2024/03/24 03:30:36;;;;;;;0.73;0.70;;;10.70;60.20;;;;;;5000091;28;20348;-63
2024/03/24 03:33:01;;;;;;;1.17;0.80;;;10.70;60.10;;;;;;5013261;28;20244;-61
2024/03/24 03:35:27;;;;;;;1.23;0.60;;;10.70;59.90;;;;;;5011763;28;20202;-63
2024/03/24 03:37:52;;;;;;;1.43;0.90;;;10.50;59.50;;;;;;5011877;28;20212;-65
2024/03/24 03:40:18;;;;;;;0.90;0.80;;;10.40;59.70;;;;;;5007628;28;20228;-62
2024/03/24 03:42:43;;;;;;;1.23;0.90;;;10.30;60.00;;;;;;5005527;28;20289;-64
2024/03/24 03:45:10;;;;;;;3.63;0.93;;;10.40;60.10;;;;;;5005845;28;20189;-61
2024/03/24 03:47:36;;;;;;;1.03;0.80;;;10.50;59.80;;;;;;5005933;28;20234;-66
2024/03/24 03:50:02;;;;;;;1.93;1.00;;;10.50;59.80;;;;;;5012732;28;20484;-63
2024/03/24 03:52:31;;;;;;;1.20;1.00;;;10.50;59.80;;;;;;5008383;28;20197;-64
2024/03/24 03:55:00;;;;;;;1.90;1.00;;;10.60;59.80;;;;;;5001864;28;20197;-63
2024/03/24 03:57:28;;;;;;;1.43;0.80;;;10.40;60.00;;;;;;5006459;28;20441;-63
2024/03/24 03:59:54;;;;;;;0.90;0.90;;;10.40;60.40;;;;;;5004948;28;20445;-63
2024/03/24 04:02:21;;;;;;;1.07;0.97;;;10.40;60.50;;;;;;5007207;28;20797;-63
2024/03/24 04:04:47;;;;;;;1.07;0.97;;;10.50;60.80;;;;;;5010258;28;20439;-64
2024/03/24 04:07:12;;;;;;;0.70;0.70;;;10.50;60.80;;;;;;5016698;28;20972;-62
2024/03/24 04:09:38;;;;;;;4.20;1.40;;;10.60;60.90;;;;;;5013798;28;20190;-61
2024/03/24 04:12:04;;;;;;;1.43;0.90;;;10.50;61.50;;;;;;5004748;28;20377;-63
2024/03/24 04:14:30;;;;;;;1.27;0.80;;;10.50;60.60;;;;;;5007032;28;20224;-61
2024/03/24 04:16:55;;;;;;;1.20;0.70;;;10.50;60.40;;;;;;5008499;28;20440;-61
2024/03/24 04:19:21;;;;;;;2.23;0.73;;;10.40;60.10;;;;;;5008523;28;20190;-66
2024/03/24 04:21:47;;;;;;;3.13;0.70;;;10.40;60.10;;;;;;5009112;28;20185;-61
2024/03/24 04:24:13;;;;;;;0.60;0.60;;;10.40;60.30;;;;;;5005064;28;20204;-60
2024/03/24 04:26:39;;;;;;;0.50;0.50;;;10.30;60.20;;;;;;5010865;28;20507;-64
2024/03/24 04:29:05;;;;;;;3.30;0.80;;;10.40;60.00;;;;;;5011552;28;20428;-61
2024/03/24 04:31:30;;;;;;;1.00;0.80;;;10.40;59.90;;;;;;5001293;28;20246;-63
2024/03/24 04:33:56;;;;;;;1.33;0.60;;;10.50;59.90;;;;;;5017051;28;20185;-63
2024/03/24 04:36:22;;;;;;;0.60;0.50;;;10.50;59.70;;;;;;5006302;28;20217;-62
2024/03/24 04:38:47;;;;;;;0.70;0.53;;;10.40;59.50;;;;;;5008674;28;20445;-60
2024/03/24 04:41:13;;;;;;;1.43;0.57;;;10.40;59.70;;;;;;5011435;28;20244;-63
2024/03/24 04:43:39;;;;;;;1.37;0.80;;;10.40;59.80;;;;;;5009129;28;20190;-62
2024/03/24 04:46:05;;;;;;;0.50;0.50;;;10.30;59.70;;;;;;5011794;28;20445;-62
2024/03/24 04:48:31;;;;;;;0.73;0.50;;;10.20;59.70;;;;;;5012141;28;20239;-62
2024/03/24 04:50:56;;;;;;;0.70;0.70;;;10.10;60.20;;;;;;5012549;28;20468;-57
2024/03/24 04:53:24;;;;;;;1.00;0.60;;;10.10;60.40;;;;;;5005970;28;20556;-58
2024/03/24 04:55:49;;;;;;;1.20;0.90;;;9.90;61.40;;;;;;5009895;28;20196;-63
2024/03/24 04:58:15;;;;;;;1.67;0.83;;;9.80;61.70;;;;;;5011075;28;20460;-62
2024/03/24 05:00:40;;;;;;;0.60;0.57;;;9.80;62.00;;;;;;5016122;28;20186;-60
2024/03/24 05:03:06;;;;;;;2.30;1.03;;;9.80;62.20;;;;;;5011210;28;20729;-66
2024/03/24 05:05:32;;;;;;;1.13;0.70;;;9.60;63.10;;;;;;5006771;28;20728;-63
2024/03/24 05:07:57;;;;;;;1.40;0.90;;;9.50;63.20;;;;;;5006023;28;20217;-61
2024/03/24 05:10:23;;;;;;;0.90;0.60;;;9.60;63.20;;;;;;5002398;28;21112;-62
2024/03/24 05:12:49;;;;;;;0.60;0.60;;;9.60;63.20;;;;;;5004880;28;20937;-58
2024/03/24 05:15:14;;;;;;;0.60;0.50;;;9.50;63.00;;;;;;5008611;28;20186;-64
2024/03/24 05:17:40;;;;;;;2.10;0.70;;;9.50;62.80;;;;;;5004118;28;20780;-64
2024/03/24 05:20:09;;;;;;;0.90;0.63;;;9.60;63.40;;;;;;5005121;28;20767;-66
2024/03/24 05:22:36;;;;;;;1.33;0.60;;;9.80;62.00;;;;;;5006937;28;20240;-57
2024/03/24 05:25:04;;;;;;;0.97;0.87;;;9.90;61.50;;;;;;5012579;28;20467;-61
2024/03/24 05:27:29;;;;;;;1.73;1.00;;;9.90;61.60;;;;;;5003330;28;20456;-68
2024/03/24 05:29:55;;;;;;;0.70;0.70;;;9.80;61.70;;;;;;5004266;28;20437;-64
2024/03/24 05:32:21;;;;;;;1.07;0.60;;;9.80;61.70;;;;;;5016976;28;20197;-62
2024/03/24 05:34:47;;;;;;;3.23;0.50;;;9.90;61.30;;;;;;5009565;28;20572;-61
2024/03/24 05:37:13;;;;;;;0.70;0.60;;;10.00;59.90;;;;;;5009965;28;20210;-59
2024/03/24 05:39:40;;;;;;;1.50;0.77;;;10.10;59.60;;;;;;5016885;28;20503;-58
2024/03/24 05:42:06;;;;;;;0.87;0.70;;;10.20;59.50;;;;;;5012576;28;20440;-66
2024/03/24 05:44:32;;;;;;;1.43;0.80;;;10.30;59.30;;;;;;5010792;28;20832;-64
2024/03/24 05:46:58;;;;;;;1.27;0.70;;;10.30;59.20;;;;;;5011654;28;20479;-57
2024/03/24 05:49:24;;;;;;;1.33;0.80;;;10.30;59.10;;;;;;5011640;28;20205;-58
2024/03/24 05:51:50;;;;;;;0.70;0.70;;;10.40;59.00;;;;;;5011935;28;20268;-63
2024/03/24 05:54:15;;;;;;;0.80;0.80;;;10.40;58.90;;;;;;5010739;28;20461;-60
2024/03/24 05:56:41;;;;;;;0.70;0.50;;;10.40;58.80;;;;;;5011554;28;20198;-61
2024/03/24 05:59:07;;;;;;;0.73;0.60;;;10.40;58.80;;;;;;5011424;28;20194;-62
2024/03/24 06:01:33;;;;;;;3.00;1.10;;;10.50;58.80;;;;;;5008986;28;20665;-62
2024/03/24 06:03:58;;;;;;;1.60;0.80;;;10.50;58.80;;;;;;5009760;28;20182;-64
2024/03/24 06:06:24;;;;;;;1.70;0.70;;;10.50;58.50;;;;;;5011569;28;20700;-60
2024/03/24 06:08:50;;;;;;;1.03;0.77;;;10.40;58.30;;;;;;5011115;28;20189;-61
2024/03/24 06:11:16;;;;;;;0.60;0.60;;;10.40;58.40;;;;;;5008900;28;20483;-62
2024/03/24 06:13:41;;;;;;;0.90;0.80;;;10.40;58.50;;;;;;5010388;28;20646;-62
2024/03/24 06:16:07;;;;;;;0.80;0.70;;;10.40;58.60;;;;;;5016541;28;20649;-59
2024/03/24 06:18:33;;;;;;;2.07;0.97;;;10.50;58.60;;;;;;5006696;28;20238;-64
2024/03/24 06:21:00;;;;;;;3.33;0.97;;;10.60;59.30;;;;;;5011466;28;20305;-64
2024/03/24 06:23:26;;;;;;;1.30;0.90;;;10.70;59.30;;;;;;5010533;28;20479;-57
2024/03/24 06:25:51;;;;;;;0.80;0.70;;;10.80;59.10;;;;;;5008698;28;20860;-59
2024/03/24 06:28:17;;;;;;;1.63;1.37;;;10.90;58.60;;;;;;5008444;28;20214;-62
2024/03/24 06:30:42;;;;;;;1.03;0.80;;;11.00;58.20;;;;;;5010223;28;20213;-65
2024/03/24 06:33:08;;;;;;;1.37;0.80;;;11.10;57.80;;;;;;5001424;28;20256;-61
2024/03/24 06:35:34;;;;;;;1.50;0.90;;;11.20;57.10;;;;;;5002470;28;20182;-61
2024/03/24 06:37:59;;;;;;;0.90;0.60;;;11.10;56.70;;;;;;5004167;28;20229;-61
2024/03/24 06:40:25;;;;;;;1.33;0.80;;;11.00;56.60;;;;;;5009947;28;20236;-64
2024/03/24 06:43:02;;;;;;;0.60;0.60;;;11.00;56.70;;;;;;5008726;28;20212;-61
2024/03/24 06:45:31;;;;;;;0.93;0.63;;;11.10;56.60;;;;;;5007619;28;20963;-59
2024/03/24 06:48:06;;;;;;;2.40;1.10;;;11.10;56.50;;;;;;5009021;28;20546;-65
2024/03/24 06:50:32;;;;;;;2.50;0.90;;;10.90;56.50;;;;;;5008642;28;20538;-60
2024/03/24 06:52:59;;;;;;;3.47;0.90;;;10.90;56.80;;;;;;5009797;28;20947;-59
2024/03/24 06:55:26;;;;;;;3.23;0.80;;;10.70;57.10;;;;;;5009240;28;20201;-59
2024/03/24 06:57:55;;;;;;;1.40;1.03;;;10.70;56.80;;;;;;5006876;28;20848;-62
2024/03/24 07:00:21;;;;;;;1.73;1.00;;;10.70;57.30;;;;;;5008307;28;20445;-59
2024/03/24 07:02:47;;;;;;;1.00;0.83;;;10.70;57.50;;;;;;5007446;28;21048;-60
2024/03/24 07:05:14;;;;;;;1.63;1.23;;;10.70;57.40;;;;;;5006097;28;20532;-65
2024/03/24 07:07:39;;;;;;;1.17;0.80;;;10.70;57.40;;;;;;5010335;28;20454;-63
2024/03/24 07:10:06;;;;;;;5.30;1.17;;;10.70;57.30;;;;;;5008554;28;20444;-66
2024/03/24 07:12:32;;;;;;;1.10;1.00;;;10.80;57.30;;;;;;5009468;28;20181;-62
2024/03/24 07:14:58;;;;;;;1.10;1.00;;;10.50;56.90;;;;;;5008505;28;20519;-60
2024/03/24 07:17:23;;;;;;;1.43;1.23;;;10.20;57.50;;;;;;5010081;28;20523;-62
2024/03/24 07:19:49;;;;;;;1.53;1.43;;;9.60;57.70;;;;;;5007719;28;22008;-63
2024/03/24 07:22:15;;;;;;;1.07;0.93;;;9.30;59.00;;;;;;5008969;28;20554;-57
2024/03/24 07:24:41;;;;;;;1.33;0.90;;;9.20;59.20;;;;;;5007468;28;20262;-59
2024/03/24 07:27:07;;;;;;;2.17;1.33;;;9.30;59.60;;;;;;5010761;28;20210;-64
2024/03/24 07:29:32;;;;;;;1.90;0.97;;;9.40;59.70;;;;;;5008038;28;20448;-62
2024/03/24 07:31:58;;;;;;;1.47;1.10;;;9.50;59.30;;;;;;5008788;28;20984;-59
2024/03/24 07:34:24;;;;;;;1.60;1.20;;;9.40;59.00;;;;;;5008702;28;20186;-62
2024/03/24 07:36:49;;;;;;;1.30;0.87;;;9.50;59.40;;;;;;5009524;28;20202;-57
2024/03/24 07:39:15;;;;;;;3.03;0.80;;;9.50;58.50;;;;;;5009670;28;20875;-60
2024/03/24 07:41:40;;;;;;;3.30;1.83;;;9.50;58.10;;;;;;5009228;28;20641;-60
2024/03/24 07:44:06;;;;;;;3.20;1.47;;;9.50;58.30;;;;;;5008808;28;20182;-67
2024/03/24 07:46:32;;;;;;;1.20;1.10;;;9.70;58.10;;;;;;5007642;28;20213;-62
2024/03/24 07:48:57;;;;;;;3.47;1.37;;;9.90;58.00;;;;;;5008505;28;20449;-63
2024/03/24 07:51:23;;;;;;;1.87;1.00;;;10.20;56.80;;;;;;5008087;28;20224;-61
2024/03/24 07:53:49;;;;;;;1.47;0.90;;;10.40;56.00;;;;;;5007752;28;20258;-58
2024/03/24 07:56:15;;;;;;;1.00;0.90;;;10.50;54.70;;;;;;5009425;28;20186;-58
2024/03/24 07:58:41;;;;;;;1.10;1.00;;;10.60;53.30;;;;;;5005924;28;20175;-65
2024/03/24 08:01:07;;;;;;;2.43;1.40;;;10.60;53.50;;;;;;5004886;28;20442;-60
2024/03/24 08:03:33;;;;;;;2.03;1.27;;;11.00;53.00;;;;;;5005198;28;20455;-61
2024/03/24 08:05:58;;;;;;;0.83;0.63;;;11.10;52.40;;;;;;5005921;28;20182;-60
2024/03/24 08:08:24;;;;;;;2.20;0.77;;;11.10;52.90;;;;;;5002562;28;20249;-66
2024/03/24 08:10:49;;;;;;;1.93;1.20;;;11.20;51.50;;;;;;4999345;28;20225;-55
2024/03/24 08:13:15;;;;;;;1.27;0.73;;;11.20;51.80;;;;;;5001315;28;20198;-62
2024/03/24 08:15:40;;;;;;;1.07;0.87;;;11.30;52.10;;;;;;5008966;28;20186;-63
2024/03/24 08:18:06;;;;;;;1.43;0.87;;;11.20;50.40;;;;;;5007717;28;20202;-68
2024/03/24 08:20:32;;;;;;;1.20;1.10;;;11.20;51.30;;;;;;5010905;28;20196;-58
2024/03/24 08:22:57;;;;;;;0.90;0.80;;;11.30;51.20;;;;;;5022410;28;20230;-59
2024/03/24 08:25:23;;;;;;;1.33;1.07;;;11.40;50.70;;;;;;5012466;28;20192;-60
2024/03/24 08:27:48;;;;;;;2.23;1.00;;;11.40;50.50;;;;;;5020770;28;20252;-64
2024/03/24 08:30:14;;;;;;;1.40;1.30;;;11.50;51.60;;;;;;5019062;28;20221;-61
2024/03/24 08:32:40;;;;;;;0.77;0.77;;;11.40;51.60;;;;;;5013746;28;20559;-60
2024/03/24 08:35:05;;;;;;;2.50;1.13;;;11.20;51.90;;;;;;5018121;28;20219;-59
2024/03/24 08:37:31;;;;;;;1.13;1.03;;;11.20;52.40;;;;;;5009470;28;20216;-62
2024/03/24 08:39:57;;;;;;;1.00;0.70;;;10.90;51.50;;;;;;5016776;28;20193;-63
2024/03/24 08:42:23;;;;;;;1.33;0.97;;;10.70;51.80;;;;;;5016385;28;20236;-63
2024/03/24 08:44:49;;;;;;;2.60;1.10;;;10.40;52.30;;;;;;5015223;28;20178;-60
2024/03/24 08:47:14;;;;;;;1.97;0.90;;;10.70;52.80;;;;;;5018277;28;20472;-65
2024/03/24 08:49:40;;;;;;;1.53;0.90;;;10.90;52.60;;;;;;5011561;28;20197;-61
2024/03/24 08:52:06;;;;;;;1.23;0.70;;;10.70;51.60;;;;;;5009974;28;20222;-63
2024/03/24 08:54:31;;;;;;;2.03;1.10;;;11.10;52.40;;;;;;5014179;28;20665;-63
2024/03/24 08:56:57;;;;;;;1.40;1.20;;;11.00;51.50;;;;;;5021131;28;20198;-65
2024/03/24 08:59:22;;;;;;;3.63;1.40;;;10.90;52.00;;;;;;5018911;28;20185;-65
2024/03/24 09:01:48;;;;;;;1.63;1.33;;;11.30;52.40;;;;;;5020326;28;20209;-59
2024/03/24 09:04:14;;;;;;;2.13;1.43;;;11.40;51.10;;;;;;5013586;28;20213;-61
2024/03/24 09:06:40;;;;;;;1.27;0.90;;;11.50;51.20;;;;;;5011054;28;20453;-58
2024/03/24 09:09:05;;;;;;;1.97;1.43;;;11.30;50.20;;;;;;5015217;28;20284;-65
2024/03/24 09:11:31;;;;;;;1.60;1.50;;;11.50;51.70;;;;;;4999028;28;20302;-65
2024/03/24 09:13:57;;;;;;;1.80;1.70;;;11.60;51.30;;;;;;5021364;28;20193;-65
2024/03/24 09:16:23;;;;;;;2.77;2.53;;;11.60;50.60;;;;;;5010961;28;20216;-62
2024/03/24 09:18:49;;;;;;;2.37;1.40;;;11.50;50.10;;;;;;5015678;28;20640;-58
2024/03/24 09:21:14;;;;;;;4.33;1.20;;;11.50;50.30;;;;;;5014029;28;20447;-61
2024/03/24 09:23:40;;;;;;;2.87;1.40;;;11.20;49.50;;;;;;5013687;28;20437;-62
2024/03/24 09:26:05;;;;;;;4.23;1.70;;;10.70;49.30;;;;;;5021793;28;20656;-64
2024/03/24 09:28:31;;;;;;;2.60;1.60;;;10.90;50.20;;;;;;5015664;28;20190;-69
2024/03/24 09:31:02;;;;;;;2.13;1.93;;;11.00;50.60;;;;;;5015609;28;20316;-61
2024/03/24 09:33:28;;;;;;;2.20;1.57;;;11.20;50.50;;;;;;5017695;28;20197;-62
2024/03/24 09:35:59;;;;;;;2.77;2.37;;;11.20;49.60;;;;;;5024461;28;20901;-59
2024/03/24 09:38:25;;;;;;;1.90;1.73;;;11.00;49.30;;;;;;5016262;28;20449;-62
2024/03/24 09:40:51;;;;;;;2.30;2.10;;;11.20;50.10;;;;;;5017682;28;21035;-61
2024/03/24 09:43:17;;;;;;;2.70;1.60;;;10.90;49.50;;;;;;5021681;28;20173;-62
2024/03/24 09:45:43;;;;;;;3.17;1.83;;;11.10;49.90;;;;;;5012214;28;20532;-59
2024/03/24 09:48:12;;;;;;;5.17;1.73;;;11.30;49.80;;;;;;5021608;28;20481;-71
2024/03/24 09:50:38;;;;;;;1.93;1.80;;;10.90;49.60;;;;;;5020636;28;20571;-63
2024/03/24 09:53:04;;;;;;;8.07;2.57;;;10.60;50.30;;;;;;5025493;28;20478;-63
2024/03/24 09:55:30;;;;;;;2.33;1.90;;;10.50;51.30;;;;;;5017578;28;20421;-66
2024/03/24 09:57:57;;;;;;;6.13;2.00;;;10.60;51.40;;;;;;5014370;28;20201;-62
2024/03/24 10:00:23;;;;;;;3.23;2.00;;;10.50;51.50;;;;;;5010086;28;20436;-59
2024/03/24 10:02:52;;;;;;;5.10;1.90;;;10.50;51.30;;;;;;5021677;28;20409;-60
2024/03/24 10:05:18;;;;;;;4.57;2.00;;;10.40;51.40;;;;;;5021737;28;20430;-62
2024/03/24 10:07:44;;;;;;;3.90;1.47;;;10.40;51.70;;;;;;5019704;28;20444;-60
2024/03/24 10:10:10;;;;;;;2.80;1.70;;;10.60;51.50;;;;;;5015855;28;20444;-63
2024/03/24 10:12:36;;;;;;;2.33;1.77;;;10.50;51.40;;;;;;5022535;28;20892;-67
2024/03/24 10:15:25;;;;;;;2.80;1.60;;;10.80;51.80;;;;;;5021675;28;20428;-64
2024/03/24 10:18:04;;;;;;;1.87;1.53;;;10.90;51.30;;;;;;5016676;28;20267;-61
2024/03/24 10:20:30;;;;;;;3.50;1.73;;;10.70;50.70;;;;;;5014515;28;21059;-71
2024/03/24 10:22:57;;;;;;;2.50;1.50;;;10.60;51.00;;;;;;5012796;28;20431;-63
2024/03/24 10:25:31;;;;;;;3.30;1.90;;;10.70;51.50;;;;;;5020442;28;20424;-59
2024/03/24 10:27:58;;;;;;;3.17;1.67;;;10.70;51.90;;;;;;5017988;28;20447;-59
2024/03/24 10:30:25;;;;;;;3.03;1.50;;;10.90;51.80;;;;;;5016217;28;20578;-64
2024/03/24 10:32:51;;;;;;;3.07;1.57;;;10.80;51.10;;;;;;5020822;28;20515;-63
2024/03/24 10:35:18;;;;;;;3.93;1.60;;;10.70;51.60;;;;;;5012135;28;20460;-58
2024/03/24 10:37:44;;;;;;;4.77;1.93;;;10.70;51.60;;;;;;5019380;28;20528;-62
2024/03/24 10:40:13;;;;;;;1.80;1.57;;;10.50;51.80;;;;;;5023638;28;20955;-64
2024/03/24 10:42:53;;;;;;;1.70;1.40;;;10.40;52.10;;;;;;5019329;28;20185;-59
2024/03/24 10:45:24;;;;;;;4.87;1.87;;;10.50;52.00;;;;;;5020553;28;20419;-59
2024/03/24 10:47:54;;;;;;;4.40;1.80;;;10.40;51.90;;;;;;5016886;28;20534;-58
2024/03/24 10:50:20;;;;;;;2.20;2.00;;;10.60;52.50;;;;;;5013862;28;20443;-58
2024/03/24 10:52:46;;;;;;;2.80;2.10;;;10.90;52.50;;;;;;5022696;28;20518;-62
2024/03/24 10:55:13;;;;;;;2.90;1.77;;;10.90;51.80;;;;;;5016552;28;20497;-64
2024/03/24 10:57:44;;;;;;;2.63;1.73;;;10.90;51.80;;;;;;5019415;28;20484;-61
2024/03/24 11:00:13;;;;;;;2.33;1.57;;;10.80;51.80;;;;;;5019382;28;20480;-61
2024/03/24 11:02:40;;;;;;;2.10;1.77;;;10.60;51.50;;;;;;5019477;28;20425;-59
2024/03/24 11:05:07;;;;;;;3.60;1.77;;;10.30;51.90;;;;;;5022949;28;20780;-70
2024/03/24 11:07:37;;;;;;;4.43;1.90;;;10.20;52.30;;;;;;5011916;28;20476;-61
2024/03/24 11:10:04;;;;;;;2.00;1.70;;;10.40;52.30;;;;;;5016677;28;20442;-65
2024/03/24 11:12:30;;;;;;;7.03;2.23;;;10.30;52.00;;;;;;5014610;28;20448;-62
2024/03/24 11:14:56;;;;;;;2.20;1.63;;;10.40;52.00;;;;;;5008939;28;20455;-71
2024/03/24 11:17:23;;;;;;;5.33;1.83;;;10.30;51.80;;;;;;5007432;28;20465;-61
2024/03/24 11:19:50;;;;;;;1.97;1.80;;;10.60;52.30;;;;;;5009795;28;20192;-60
2024/03/24 11:22:21;;;;;;;2.07;1.70;;;10.70;51.40;;;;;;5008764;28;21071;-64
2024/03/24 11:24:47;;;;;;;3.40;2.30;;;10.50;51.20;;;;;;5010962;28;20457;-61
2024/03/24 11:27:27;;;;;;;3.23;2.13;;;10.50;51.70;;;;;;5019977;28;20447;-64
2024/03/24 11:29:53;;;;;;;5.00;2.30;;;10.20;51.40;;;;;;5018199;28;20656;-62
2024/03/24 11:32:19;;;;;;;3.90;2.07;;;10.20;52.10;;;;;;5019211;28;20554;-65
2024/03/24 11:34:57;;;;;;;2.13;1.90;;;10.00;52.70;;;;;;5009756;28;20436;-63
2024/03/24 11:37:30;;;;;;;1.80;1.63;;;10.00;52.80;;;;;;5007572;28;20456;-62
2024/03/24 11:39:56;;;;;;;2.10;1.57;;;10.00;53.10;;;;;;5015560;28;20441;-61
2024/03/24 11:42:28;;;;;;;3.20;1.60;;;10.20;53.30;;;;;;5014297;28;20451;-61
2024/03/24 11:44:54;;;;;;;1.80;1.50;;;10.10;52.90;;;;;;5011530;28;20653;-59
2024/03/24 11:47:20;;;;;;;1.90;1.77;;;10.20;53.70;;;;;;5007901;28;20525;-60
2024/03/24 11:49:49;;;;;;;2.20;1.30;;;10.50;53.80;;;;;;5012078;28;20308;-61
2024/03/24 11:52:16;;;;;;;2.13;1.37;;;10.40;53.70;;;;;;5012626;28;20218;-61
2024/03/24 11:54:46;;;;;;;2.53;1.70;;;10.50;53.30;;;;;;5014929;28;20433;-58
2024/03/24 11:57:11;;;;;;;1.90;1.50;;;10.50;53.10;;;;;;5012853;28;20935;-69
2024/03/24 11:59:38;;;;;;;4.40;1.77;;;10.70;53.60;;;;;;5008840;28;20477;-66
2024/03/24 12:02:04;;;;;;;1.87;1.40;;;10.50;53.80;;;;;;5011914;28;20189;-60
2024/03/24 12:04:29;;;;;;;2.87;1.60;;;10.60;53.90;;;;;;5002168;28;20452;-61
2024/03/24 12:06:55;;;;;;;2.30;1.53;;;10.70;53.00;;;;;;5002431;28;20473;-61
2024/03/24 12:09:22;;;;;;;2.43;1.50;;;10.80;53.20;;;;;;5011820;28;20200;-65
2024/03/24 12:11:54;;;;;;;2.23;1.60;;;10.70;53.00;;;;;;5011026;28;20479;-63
2024/03/24 12:14:22;;;;;;;1.87;1.57;;;10.70;53.40;;;;;;5013116;28;20420;-61
2024/03/24 12:17:01;;;;;;;4.50;1.77;;;10.60;53.60;;;;;;5015632;28;20823;-61
2024/03/24 12:19:26;;;;;;;2.20;1.77;;;10.70;53.80;;;;;;5010921;28;20445;-62
2024/03/24 12:21:53;;;;;;;3.23;1.60;;;10.80;53.20;;;;;;5011154;28;20439;-60
2024/03/24 12:24:18;;;;;;;1.93;1.40;;;10.90;53.20;;;;;;5011660;28;20453;-61
2024/03/24 12:26:44;;;;;;;2.27;1.50;;;10.90;53.40;;;;;;5018899;28;20220;-62
2024/03/24 12:29:16;;;;;;;3.20;1.60;;;10.90;53.40;;;;;;5009696;28;20566;-59
2024/03/24 12:31:43;;;;;;;3.43;1.30;;;10.90;53.30;;;;;;5015484;28;20484;-59
2024/03/24 12:34:11;;;;;;;2.90;1.60;;;10.60;53.60;;;;;;5009829;28;20444;-61
2024/03/24 12:36:36;;;;;;;1.27;1.17;;;10.40;54.80;;;;;;5010408;28;20456;-65
2024/03/24 12:39:02;;;;;;;4.90;1.97;;;10.20;56.30;;;;;;5016969;28;20924;-62
2024/03/24 12:41:28;;;;;;;1.70;1.50;;;10.30;57.00;;;;;;5016924;28;20278;-57
2024/03/24 12:43:56;;;;;;;2.67;1.77;;;10.30;57.60;;;;;;5015805;28;20423;-59